PAY1256 KMIA-KMEM
Flight info
| Callsign | PAY1256 |
|---|---|
| Flight time | N/A |
| Altitude | 16000 |
| Route | BNGOS4 COREA LEGGT BEING ZOMTO MNFRD OZSOM LAURI |
| Aircraft | L188/M-SDE2E3FGRY/H |
Departure
| Time | N/A |
|---|---|
| Airport | Miami International Airport (KMIA) |
Arrival
| Time | 2026-05-03 20:15 |
|---|---|
| Airport | Memphis International Airport (KMEM) |
| Time | Latitude | Longitude | Altitude | Speed | Heading |
|---|---|---|---|---|---|
| 2026-05-03 20:15 | 35.06143 | -89.97620 | 391 ft | 123 kts | 183° |
| 2026-05-03 20:15 | 35.05289 | -89.97609 | 282 ft | 116 kts | 186° |
| 2026-05-03 20:15 | 35.04611 | -89.97610 | 291 ft | 70 kts | 179° |
| 2026-05-03 20:15 | 35.04321 | -89.97601 | 297 ft | 32 kts | 175° |
| 2026-05-03 20:16 | 35.04205 | -89.97620 | 300 ft | 12 kts | 240° |
| 2026-05-03 20:16 | 35.04196 | -89.97701 | 300 ft | 8 kts | 291° |
| 2026-05-03 20:16 | 35.04261 | -89.97745 | 299 ft | 14 kts | 355° |
| 2026-05-03 20:16 | 35.04367 | -89.97757 | 297 ft | 15 kts | 353° |
| 2026-05-03 20:17 | 35.04470 | -89.97750 | 295 ft | 14 kts | 3° |
| 2026-05-03 20:17 | 35.04569 | -89.97752 | 293 ft | 15 kts | 358° |
| 2026-05-03 20:17 | 35.04681 | -89.97754 | 291 ft | 16 kts | 359° |
| 2026-05-03 20:17 | 35.04793 | -89.97755 | 289 ft | 16 kts | 359° |
| 2026-05-03 20:18 | 35.04913 | -89.97758 | 285 ft | 17 kts | 1° |
| 2026-05-03 20:18 | 35.05033 | -89.97758 | 281 ft | 16 kts | 356° |
| 2026-05-03 20:18 | 35.05139 | -89.97762 | 279 ft | 14 kts | 360° |
| 2026-05-03 20:18 | 35.05241 | -89.97764 | 275 ft | 15 kts | 357° |
| 2026-05-03 20:19 | 35.05353 | -89.97772 | 273 ft | 16 kts | 349° |
| 2026-05-03 20:19 | 35.05463 | -89.97772 | 270 ft | 15 kts | 25° |
| 2026-05-03 20:19 | 35.05563 | -89.97763 | 267 ft | 16 kts | 347° |
| 2026-05-03 20:19 | 35.05685 | -89.97783 | 265 ft | 18 kts | 359° |
| 2026-05-03 20:20 | 35.05732 | -89.97783 | 264 ft | 0 kts | 0° |
| 2026-05-03 20:20 | 35.05755 | -89.97783 | 264 ft | 11 kts | 359° |
| 2026-05-03 20:20 | 35.05880 | -89.97781 | 261 ft | 20 kts | 357° |
| 2026-05-03 20:20 | 35.05939 | -89.97783 | 260 ft | 9 kts | 0° |
| 2026-05-03 20:21 | 35.05983 | -89.97687 | 259 ft | 16 kts | 109° |
| 2026-05-03 20:21 | 35.05956 | -89.97543 | 262 ft | 17 kts | 104° |
| 2026-05-03 20:21 | 35.05939 | -89.97400 | 263 ft | 16 kts | 91° |
| 2026-05-03 20:21 | 35.05935 | -89.97260 | 264 ft | 14 kts | 92° |
| 2026-05-03 20:22 | 35.05935 | -89.97223 | 264 ft | 7 kts | 92° |
| 2026-05-03 20:22 | 35.05931 | -89.97123 | 264 ft | 10 kts | 91° |
| 2026-05-03 20:22 | 35.05961 | -89.97053 | 264 ft | 11 kts | 353° |
| 2026-05-03 20:22 | 35.06009 | -89.97060 | 264 ft | 0 kts | 352° |